sensor_id;sensor_type;location;lat;lon;timestamp;P1;durP1;ratioP1;P2;durP2;ratioP2
33987;SDS011;37428;53.580;-1.666;2022-07-23T00:03:02;6.35;;;4.43;;
33987;SDS011;37428;53.580;-1.666;2022-07-23T00:06:13;5.68;;;4.03;;
33987;SDS011;37428;53.580;-1.666;2022-07-23T00:09:15;8.27;;;4.22;;
33987;SDS011;37428;53.580;-1.666;2022-07-23T00:12:17;7.07;;;3.83;;
33987;SDS011;37428;53.580;-1.666;2022-07-23T00:15:19;6.38;;;4.07;;
33987;SDS011;37428;53.580;-1.666;2022-07-23T00:18:21;5.05;;;3.90;;
33987;SDS011;37428;53.580;-1.666;2022-07-23T00:21:26;4.45;;;4.05;;
33987;SDS011;37428;53.580;-1.666;2022-07-23T00:24:29;5.28;;;3.88;;
33987;SDS011;37428;53.580;-1.666;2022-07-23T00:27:46;5.53;;;3.63;;
33987;SDS011;37428;53.580;-1.666;2022-07-23T00:30:48;4.38;;;3.90;;
33987;SDS011;37428;53.580;-1.666;2022-07-23T00:34:08;5.28;;;3.75;;
33987;SDS011;37428;53.580;-1.666;2022-07-23T00:37:16;9.65;;;5.15;;
33987;SDS011;37428;53.580;-1.666;2022-07-23T00:40:18;10.73;;;4.65;;
33987;SDS011;37428;53.580;-1.666;2022-07-23T00:43:33;9.25;;;3.88;;
33987;SDS011;37428;53.580;-1.666;2022-07-23T00:46:37;4.30;;;3.90;;
33987;SDS011;37428;53.580;-1.666;2022-07-23T00:49:39;5.63;;;4.05;;
33987;SDS011;37428;53.580;-1.666;2022-07-23T00:52:44;10.02;;;4.10;;
33987;SDS011;37428;53.580;-1.666;2022-07-23T00:55:48;7.18;;;4.20;;
33987;SDS011;37428;53.580;-1.666;2022-07-23T00:58:50;8.77;;;4.30;;
33987;SDS011;37428;53.580;-1.666;2022-07-23T01:02:02;11.35;;;4.88;;
33987;SDS011;37428;53.580;-1.666;2022-07-23T01:05:06;4.70;;;4.32;;
33987;SDS011;37428;53.580;-1.666;2022-07-23T01:08:15;4.30;;;3.65;;
33987;SDS011;37428;53.580;-1.666;2022-07-23T01:11:25;6.53;;;2.88;;
33987;SDS011;37428;53.580;-1.666;2022-07-23T01:14:37;3.92;;;2.97;;
33987;SDS011;37428;53.580;-1.666;2022-07-23T01:17:43;6.10;;;2.92;;
33987;SDS011;37428;53.580;-1.666;2022-07-23T01:20:55;6.78;;;3.08;;
33987;SDS011;37428;53.580;-1.666;2022-07-23T01:24:00;6.93;;;2.95;;
33987;SDS011;37428;53.580;-1.666;2022-07-23T01:27:08;4.80;;;3.05;;
33987;SDS011;37428;53.580;-1.666;2022-07-23T01:30:12;7.45;;;3.60;;
33987;SDS011;37428;53.580;-1.666;2022-07-23T01:33:15;4.47;;;3.08;;
33987;SDS011;37428;53.580;-1.666;2022-07-23T01:36:19;8.57;;;3.70;;
33987;SDS011;37428;53.580;-1.666;2022-07-23T01:39:27;5.75;;;3.17;;
33987;SDS011;37428;53.580;-1.666;2022-07-23T01:42:35;6.47;;;3.42;;
33987;SDS011;37428;53.580;-1.666;2022-07-23T01:45:39;4.07;;;2.85;;
33987;SDS011;37428;53.580;-1.666;2022-07-23T01:48:47;10.82;;;3.83;;
33987;SDS011;37428;53.580;-1.666;2022-07-23T01:51:49;4.05;;;3.65;;
33987;SDS011;37428;53.580;-1.666;2022-07-23T01:55:18;4.65;;;3.85;;
33987;SDS011;37428;53.580;-1.666;2022-07-23T01:58:21;10.57;;;3.47;;
33987;SDS011;37428;53.580;-1.666;2022-07-23T02:01:25;6.93;;;3.83;;
33987;SDS011;37428;53.580;-1.666;2022-07-23T02:04:29;9.30;;;3.80;;
33987;SDS011;37428;53.580;-1.666;2022-07-23T02:07:38;7.88;;;3.65;;
33987;SDS011;37428;53.580;-1.666;2022-07-23T02:10:44;7.47;;;3.85;;
33987;SDS011;37428;53.580;-1.666;2022-07-23T02:13:56;13.27;;;3.47;;
33987;SDS011;37428;53.580;-1.666;2022-07-23T02:17:02;8.93;;;3.50;;
33987;SDS011;37428;53.580;-1.666;2022-07-23T02:20:12;7.05;;;3.83;;
33987;SDS011;37428;53.580;-1.666;2022-07-23T02:23:35;12.10;;;3.50;;
33987;SDS011;37428;53.580;-1.666;2022-07-23T02:26:44;4.75;;;2.92;;
33987;SDS011;37428;53.580;-1.666;2022-07-23T02:29:46;5.25;;;3.55;;
33987;SDS011;37428;53.580;-1.666;2022-07-23T02:32:48;4.22;;;3.50;;
33987;SDS011;37428;53.580;-1.666;2022-07-23T02:35:52;10.30;;;3.50;;
33987;SDS011;37428;53.580;-1.666;2022-07-23T02:38:56;7.32;;;3.70;;
33987;SDS011;37428;53.580;-1.666;2022-07-23T02:42:03;3.88;;;3.33;;
33987;SDS011;37428;53.580;-1.666;2022-07-23T02:45:08;7.65;;;3.30;;
33987;SDS011;37428;53.580;-1.666;2022-07-23T02:48:11;4.70;;;2.90;;
33987;SDS011;37428;53.580;-1.666;2022-07-23T02:51:15;7.32;;;3.53;;
33987;SDS011;37428;53.580;-1.666;2022-07-23T02:54:17;8.55;;;4.03;;
33987;SDS011;37428;53.580;-1.666;2022-07-23T02:57:21;7.00;;;3.72;;
33987;SDS011;37428;53.580;-1.666;2022-07-23T03:00:24;7.85;;;4.32;;
33987;SDS011;37428;53.580;-1.666;2022-07-23T03:03:29;6.95;;;4.03;;
33987;SDS011;37428;53.580;-1.666;2022-07-23T03:06:35;9.63;;;4.57;;
33987;SDS011;37428;53.580;-1.666;2022-07-23T03:09:38;6.43;;;3.60;;
33987;SDS011;37428;53.580;-1.666;2022-07-23T03:12:41;4.70;;;3.55;;
33987;SDS011;37428;53.580;-1.666;2022-07-23T03:15:43;9.48;;;4.43;;
33987;SDS011;37428;53.580;-1.666;2022-07-23T03:18:46;7.65;;;4.10;;
33987;SDS011;37428;53.580;-1.666;2022-07-23T03:21:49;5.32;;;3.90;;
33987;SDS011;37428;53.580;-1.666;2022-07-23T03:24:52;5.60;;;3.90;;
33987;SDS011;37428;53.580;-1.666;2022-07-23T03:28:01;5.95;;;3.47;;
33987;SDS011;37428;53.580;-1.666;2022-07-23T03:31:07;5.40;;;3.38;;
33987;SDS011;37428;53.580;-1.666;2022-07-23T03:34:13;4.07;;;3.50;;
33987;SDS011;37428;53.580;-1.666;2022-07-23T03:37:22;8.57;;;4.90;;
33987;SDS011;37428;53.580;-1.666;2022-07-23T03:40:27;4.93;;;3.60;;
33987;SDS011;37428;53.580;-1.666;2022-07-23T03:43:33;4.40;;;4.00;;
33987;SDS011;37428;53.580;-1.666;2022-07-23T03:46:49;9.93;;;4.20;;
33987;SDS011;37428;53.580;-1.666;2022-07-23T03:49:54;6.65;;;4.32;;
33987;SDS011;37428;53.580;-1.666;2022-07-23T03:52:58;5.75;;;4.13;;
33987;SDS011;37428;53.580;-1.666;2022-07-23T03:56:06;4.95;;;4.28;;
33987;SDS011;37428;53.580;-1.666;2022-07-23T03:59:12;9.02;;;5.78;;
33987;SDS011;37428;53.580;-1.666;2022-07-23T04:02:14;9.23;;;4.93;;
33987;SDS011;37428;53.580;-1.666;2022-07-23T04:05:20;8.93;;;5.45;;
33987;SDS011;37428;53.580;-1.666;2022-07-23T04:08:29;9.13;;;5.97;;
33987;SDS011;37428;53.580;-1.666;2022-07-23T04:11:33;8.82;;;6.22;;
33987;SDS011;37428;53.580;-1.666;2022-07-23T04:14:37;8.07;;;7.13;;
33987;SDS011;37428;53.580;-1.666;2022-07-23T04:17:40;5.72;;;5.07;;
33987;SDS011;37428;53.580;-1.666;2022-07-23T04:20:46;11.15;;;6.75;;
33987;SDS011;37428;53.580;-1.666;2022-07-23T04:23:49;10.57;;;6.82;;
33987;SDS011;37428;53.580;-1.666;2022-07-23T04:27:07;8.93;;;7.65;;
33987;SDS011;37428;53.580;-1.666;2022-07-23T04:30:16;11.98;;;7.05;;
33987;SDS011;37428;53.580;-1.666;2022-07-23T04:33:28;13.35;;;7.40;;
33987;SDS011;37428;53.580;-1.666;2022-07-23T04:36:42;12.20;;;8.63;;
33987;SDS011;37428;53.580;-1.666;2022-07-23T04:39:45;10.27;;;7.20;;
33987;SDS011;37428;53.580;-1.666;2022-07-23T04:42:49;11.98;;;7.65;;
33987;SDS011;37428;53.580;-1.666;2022-07-23T04:45:59;14.85;;;8.80;;
33987;SDS011;37428;53.580;-1.666;2022-07-23T04:49:03;13.32;;;8.98;;
33987;SDS011;37428;53.580;-1.666;2022-07-23T04:52:06;10.38;;;9.38;;
33987;SDS011;37428;53.580;-1.666;2022-07-23T04:55:10;13.75;;;9.60;;
33987;SDS011;37428;53.580;-1.666;2022-07-23T04:58:14;16.50;;;10.13;;
33987;SDS011;37428;53.580;-1.666;2022-07-23T05:01:19;17.60;;;10.68;;
33987;SDS011;37428;53.580;-1.666;2022-07-23T05:04:24;21.10;;;10.95;;
33987;SDS011;37428;53.580;-1.666;2022-07-23T05:07:28;13.57;;;10.32;;
33987;SDS011;37428;53.580;-1.666;2022-07-23T05:10:30;25.02;;;13.60;;
33987;SDS011;37428;53.580;-1.666;2022-07-23T05:13:34;14.15;;;10.68;;
33987;SDS011;37428;53.580;-1.666;2022-07-23T05:16:40;13.73;;;10.77;;
33987;SDS011;37428;53.580;-1.666;2022-07-23T05:19:42;14.95;;;12.13;;
33987;SDS011;37428;53.580;-1.666;2022-07-23T05:22:44;16.55;;;12.27;;
33987;SDS011;37428;53.580;-1.666;2022-07-23T05:25:48;16.60;;;12.57;;
33987;SDS011;37428;53.580;-1.666;2022-07-23T05:28:57;14.65;;;11.82;;
33987;SDS011;37428;53.580;-1.666;2022-07-23T05:32:03;12.98;;;11.43;;
33987;SDS011;37428;53.580;-1.666;2022-07-23T05:35:12;17.60;;;12.73;;
33987;SDS011;37428;53.580;-1.666;2022-07-23T05:38:15;13.07;;;11.10;;
33987;SDS011;37428;53.580;-1.666;2022-07-23T05:41:20;19.20;;;11.70;;
33987;SDS011;37428;53.580;-1.666;2022-07-23T05:44:22;14.65;;;9.63;;
33987;SDS011;37428;53.580;-1.666;2022-07-23T05:51:06;18.42;;;9.30;;
33987;SDS011;37428;53.580;-1.666;2022-07-23T05:54:20;10.90;;;8.77;;
33987;SDS011;37428;53.580;-1.666;2022-07-23T05:57:25;9.88;;;8.57;;
33987;SDS011;37428;53.580;-1.666;2022-07-23T06:00:30;9.77;;;7.55;;
33987;SDS011;37428;53.580;-1.666;2022-07-23T06:03:35;10.30;;;6.75;;
33987;SDS011;37428;53.580;-1.666;2022-07-23T06:06:39;11.73;;;7.88;;
33987;SDS011;37428;53.580;-1.666;2022-07-23T06:09:57;9.65;;;7.30;;
33987;SDS011;37428;53.580;-1.666;2022-07-23T06:13:02;11.52;;;8.52;;
33987;SDS011;37428;53.580;-1.666;2022-07-23T06:16:06;11.52;;;8.35;;
33987;SDS011;37428;53.580;-1.666;2022-07-23T06:19:08;13.60;;;7.90;;
33987;SDS011;37428;53.580;-1.666;2022-07-23T06:22:14;9.27;;;6.55;;
33987;SDS011;37428;53.580;-1.666;2022-07-23T06:25:23;10.75;;;7.05;;
33987;SDS011;37428;53.580;-1.666;2022-07-23T06:28:25;8.90;;;6.50;;
33987;SDS011;37428;53.580;-1.666;2022-07-23T06:31:29;6.80;;;6.07;;
33987;SDS011;37428;53.580;-1.666;2022-07-23T06:34:47;8.35;;;6.03;;
33987;SDS011;37428;53.580;-1.666;2022-07-23T06:37:55;5.82;;;5.32;;
33987;SDS011;37428;53.580;-1.666;2022-07-23T06:40:59;6.93;;;4.78;;
33987;SDS011;37428;53.580;-1.666;2022-07-23T06:44:02;6.32;;;4.47;;
33987;SDS011;37428;53.580;-1.666;2022-07-23T06:47:08;5.70;;;4.05;;
33987;SDS011;37428;53.580;-1.666;2022-07-23T06:50:24;8.88;;;3.08;;
33987;SDS011;37428;53.580;-1.666;2022-07-23T06:53:28;10.00;;;4.57;;
33987;SDS011;37428;53.580;-1.666;2022-07-23T06:56:34;8.52;;;4.63;;
33987;SDS011;37428;53.580;-1.666;2022-07-23T06:59:37;5.05;;;4.55;;
33987;SDS011;37428;53.580;-1.666;2022-07-23T07:02:40;8.75;;;6.95;;
33987;SDS011;37428;53.580;-1.666;2022-07-23T07:05:44;8.70;;;6.78;;
33987;SDS011;37428;53.580;-1.666;2022-07-23T07:08:54;11.60;;;7.28;;
33987;SDS011;37428;53.580;-1.666;2022-07-23T07:11:59;8.85;;;6.35;;
33987;SDS011;37428;53.580;-1.666;2022-07-23T07:15:01;9.02;;;7.05;;
33987;SDS011;37428;53.580;-1.666;2022-07-23T07:18:04;10.05;;;6.03;;
33987;SDS011;37428;53.580;-1.666;2022-07-23T07:21:13;13.98;;;7.90;;
33987;SDS011;37428;53.580;-1.666;2022-07-23T07:24:16;5.82;;;5.15;;
33987;SDS011;37428;53.580;-1.666;2022-07-23T07:27:20;11.48;;;6.65;;
33987;SDS011;37428;53.580;-1.666;2022-07-23T07:30:43;7.75;;;5.45;;
33987;SDS011;37428;53.580;-1.666;2022-07-23T07:33:45;11.80;;;5.00;;
33987;SDS011;37428;53.580;-1.666;2022-07-23T07:36:48;7.25;;;4.93;;
33987;SDS011;37428;53.580;-1.666;2022-07-23T07:39:52;10.80;;;5.40;;
33987;SDS011;37428;53.580;-1.666;2022-07-23T07:43:11;8.70;;;4.32;;
33987;SDS011;37428;53.580;-1.666;2022-07-23T07:46:17;6.38;;;4.30;;
33987;SDS011;37428;53.580;-1.666;2022-07-23T07:49:28;6.47;;;4.65;;
33987;SDS011;37428;53.580;-1.666;2022-07-23T07:52:30;6.32;;;5.20;;
33987;SDS011;37428;53.580;-1.666;2022-07-23T07:55:45;9.80;;;5.55;;
33987;SDS011;37428;53.580;-1.666;2022-07-23T07:58:47;7.50;;;5.45;;
33987;SDS011;37428;53.580;-1.666;2022-07-23T08:01:52;7.97;;;5.03;;
33987;SDS011;37428;53.580;-1.666;2022-07-23T08:04:55;8.95;;;5.93;;
33987;SDS011;37428;53.580;-1.666;2022-07-23T08:07:59;8.00;;;5.18;;
33987;SDS011;37428;53.580;-1.666;2022-07-23T08:11:02;7.60;;;5.72;;
33987;SDS011;37428;53.580;-1.666;2022-07-23T08:14:05;10.07;;;5.88;;
33987;SDS011;37428;53.580;-1.666;2022-07-23T08:17:07;5.70;;;4.60;;
33987;SDS011;37428;53.580;-1.666;2022-07-23T08:20:17;6.38;;;4.65;;
33987;SDS011;37428;53.580;-1.666;2022-07-23T08:23:21;8.98;;;4.22;;
33987;SDS011;37428;53.580;-1.666;2022-07-23T08:26:26;7.60;;;4.38;;
33987;SDS011;37428;53.580;-1.666;2022-07-23T08:29:35;7.50;;;5.28;;
33987;SDS011;37428;53.580;-1.666;2022-07-23T08:32:59;8.20;;;5.07;;
33987;SDS011;37428;53.580;-1.666;2022-07-23T08:36:14;10.13;;;5.45;;
33987;SDS011;37428;53.580;-1.666;2022-07-23T08:39:34;5.35;;;4.72;;
33987;SDS011;37428;53.580;-1.666;2022-07-23T08:42:49;14.48;;;5.70;;
33987;SDS011;37428;53.580;-1.666;2022-07-23T08:45:56;7.30;;;5.45;;
33987;SDS011;37428;53.580;-1.666;2022-07-23T08:49:02;6.63;;;4.95;;
33987;SDS011;37428;53.580;-1.666;2022-07-23T08:52:06;9.45;;;5.63;;
33987;SDS011;37428;53.580;-1.666;2022-07-23T08:55:15;9.90;;;6.07;;
33987;SDS011;37428;53.580;-1.666;2022-07-23T08:58:21;8.70;;;6.50;;
33987;SDS011;37428;53.580;-1.666;2022-07-23T09:01:25;8.48;;;6.63;;
33987;SDS011;37428;53.580;-1.666;2022-07-23T09:04:43;12.35;;;8.50;;
33987;SDS011;37428;53.580;-1.666;2022-07-23T09:08:07;9.93;;;7.65;;
33987;SDS011;37428;53.580;-1.666;2022-07-23T09:11:13;15.02;;;8.70;;
33987;SDS011;37428;53.580;-1.666;2022-07-23T09:14:21;10.43;;;7.57;;
33987;SDS011;37428;53.580;-1.666;2022-07-23T09:17:43;10.68;;;7.45;;
33987;SDS011;37428;53.580;-1.666;2022-07-23T09:20:50;11.30;;;7.30;;
33987;SDS011;37428;53.580;-1.666;2022-07-23T09:24:12;11.53;;;6.90;;
33987;SDS011;37428;53.580;-1.666;2022-07-23T09:27:48;7.93;;;7.10;;
33987;SDS011;37428;53.580;-1.666;2022-07-23T09:31:06;7.88;;;5.95;;
33987;SDS011;37428;53.580;-1.666;2022-07-23T09:34:09;11.38;;;6.25;;
33987;SDS011;37428;53.580;-1.666;2022-07-23T09:37:13;11.10;;;7.78;;
33987;SDS011;37428;53.580;-1.666;2022-07-23T09:40:16;7.82;;;5.95;;
33987;SDS011;37428;53.580;-1.666;2022-07-23T09:43:27;10.40;;;6.80;;
33987;SDS011;37428;53.580;-1.666;2022-07-23T09:46:38;8.75;;;6.63;;
33987;SDS011;37428;53.580;-1.666;2022-07-23T09:49:43;9.95;;;7.43;;
33987;SDS011;37428;53.580;-1.666;2022-07-23T09:53:11;10.27;;;8.25;;
33987;SDS011;37428;53.580;-1.666;2022-07-23T09:58:02;9.57;;;8.60;;
33987;SDS011;37428;53.580;-1.666;2022-07-23T10:00:16;13.85;;;8.38;;
33987;SDS011;37428;53.580;-1.666;2022-07-23T10:03:35;11.13;;;7.63;;
33987;SDS011;37428;53.580;-1.666;2022-07-23T10:06:44;12.98;;;7.88;;
33987;SDS011;37428;53.580;-1.666;2022-07-23T10:12:50;8.25;;;7.38;;
33987;SDS011;37428;53.580;-1.666;2022-07-23T10:16:17;11.35;;;8.35;;
33987;SDS011;37428;53.580;-1.666;2022-07-23T10:23:02;11.90;;;7.15;;
33987;SDS011;37428;53.580;-1.666;2022-07-23T10:26:34;10.32;;;7.57;;
33987;SDS011;37428;53.580;-1.666;2022-07-23T10:29:55;8.45;;;6.97;;
33987;SDS011;37428;53.580;-1.666;2022-07-23T10:33:09;8.48;;;6.43;;
33987;SDS011;37428;53.580;-1.666;2022-07-23T10:36:22;8.15;;;6.97;;
33987;SDS011;37428;53.580;-1.666;2022-07-23T10:39:40;8.45;;;6.78;;
33987;SDS011;37428;53.580;-1.666;2022-07-23T10:44:31;9.85;;;6.00;;
33987;SDS011;37428;53.580;-1.666;2022-07-23T10:46:28;6.22;;;5.63;;
33987;SDS011;37428;53.580;-1.666;2022-07-23T10:49:40;7.90;;;5.75;;
33987;SDS011;37428;53.580;-1.666;2022-07-23T11:00:28;4.65;;;3.13;;
33987;SDS011;37428;53.580;-1.666;2022-07-23T11:03:33;6.35;;;3.25;;
33987;SDS011;37428;53.580;-1.666;2022-07-23T11:10:31;6.60;;;3.92;;
33987;SDS011;37428;53.580;-1.666;2022-07-23T11:13:47;5.32;;;3.72;;
33987;SDS011;37428;53.580;-1.666;2022-07-23T11:17:01;4.25;;;3.53;;
33987;SDS011;37428;53.580;-1.666;2022-07-23T11:27:00;3.35;;;3.08;;
33987;SDS011;37428;53.580;-1.666;2022-07-23T11:30:05;7.13;;;2.90;;
33987;SDS011;37428;53.580;-1.666;2022-07-23T11:33:39;4.03;;;1.63;;
33987;SDS011;37428;53.580;-1.666;2022-07-23T11:36:54;2.38;;;1.80;;
33987;SDS011;37428;53.580;-1.666;2022-07-23T11:40:28;2.28;;;1.65;;
33987;SDS011;37428;53.580;-1.666;2022-07-23T11:43:59;3.90;;;2.05;;
33987;SDS011;37428;53.580;-1.666;2022-07-23T11:46:56;1.42;;;1.33;;
33987;SDS011;37428;53.580;-1.666;2022-07-23T11:50:13;2.97;;;1.20;;
33987;SDS011;37428;53.580;-1.666;2022-07-23T11:53:21;2.53;;;2.20;;
33987;SDS011;37428;53.580;-1.666;2022-07-23T11:56:34;3.35;;;1.90;;
33987;SDS011;37428;53.580;-1.666;2022-07-23T11:59:56;3.17;;;1.63;;
33987;SDS011;37428;53.580;-1.666;2022-07-23T12:03:11;1.83;;;1.70;;
33987;SDS011;37428;53.580;-1.666;2022-07-23T12:06:15;2.55;;;1.95;;
33987;SDS011;37428;53.580;-1.666;2022-07-23T12:10:03;4.65;;;1.52;;
33987;SDS011;37428;53.580;-1.666;2022-07-23T12:13:24;5.60;;;2.20;;
33987;SDS011;37428;53.580;-1.666;2022-07-23T12:16:40;2.60;;;2.05;;
33987;SDS011;37428;53.580;-1.666;2022-07-23T12:19:43;3.05;;;2.17;;
33987;SDS011;37428;53.580;-1.666;2022-07-23T12:23:02;1.90;;;1.65;;
33987;SDS011;37428;53.580;-1.666;2022-07-23T12:26:06;3.08;;;2.17;;
33987;SDS011;37428;53.580;-1.666;2022-07-23T12:29:11;2.38;;;1.58;;
33987;SDS011;37428;53.580;-1.666;2022-07-23T12:32:17;1.90;;;1.80;;
33987;SDS011;37428;53.580;-1.666;2022-07-23T12:35:30;2.92;;;1.52;;
33987;SDS011;37428;53.580;-1.666;2022-07-23T12:38:36;2.83;;;1.73;;
33987;SDS011;37428;53.580;-1.666;2022-07-23T12:41:53;2.63;;;1.50;;
33987;SDS011;37428;53.580;-1.666;2022-07-23T12:45:12;1.45;;;1.35;;
33987;SDS011;37428;53.580;-1.666;2022-07-23T12:48:31;2.17;;;1.95;;
33987;SDS011;37428;53.580;-1.666;2022-07-23T12:51:37;2.30;;;1.77;;
33987;SDS011;37428;53.580;-1.666;2022-07-23T12:54:44;3.00;;;1.73;;
33987;SDS011;37428;53.580;-1.666;2022-07-23T12:57:47;3.92;;;2.05;;
33987;SDS011;37428;53.580;-1.666;2022-07-23T13:01:29;3.75;;;1.92;;
33987;SDS011;37428;53.580;-1.666;2022-07-23T13:04:34;2.42;;;1.95;;
33987;SDS011;37428;53.580;-1.666;2022-07-23T13:07:38;4.97;;;2.25;;
33987;SDS011;37428;53.580;-1.666;2022-07-23T13:10:41;2.20;;;1.60;;
33987;SDS011;37428;53.580;-1.666;2022-07-23T13:14:00;3.13;;;1.90;;
33987;SDS011;37428;53.580;-1.666;2022-07-23T13:18:40;2.90;;;1.80;;
33987;SDS011;37428;53.580;-1.666;2022-07-23T13:20:32;2.50;;;1.83;;
33987;SDS011;37428;53.580;-1.666;2022-07-23T13:23:44;2.35;;;1.92;;
33987;SDS011;37428;53.580;-1.666;2022-07-23T13:27:04;1.65;;;1.55;;
33987;SDS011;37428;53.580;-1.666;2022-07-23T13:30:08;2.10;;;1.73;;
33987;SDS011;37428;53.580;-1.666;2022-07-23T13:33:33;4.78;;;2.22;;
33987;SDS011;37428;53.580;-1.666;2022-07-23T13:38:11;2.45;;;1.98;;
33987;SDS011;37428;53.580;-1.666;2022-07-23T13:40:03;4.32;;;2.13;;
33987;SDS011;37428;53.580;-1.666;2022-07-23T13:43:20;4.47;;;1.90;;
33987;SDS011;37428;53.580;-1.666;2022-07-23T13:46:39;3.17;;;2.05;;
33987;SDS011;37428;53.580;-1.666;2022-07-23T13:49:53;5.60;;;2.20;;
33987;SDS011;37428;53.580;-1.666;2022-07-23T13:52:56;3.95;;;2.30;;
33987;SDS011;37428;53.580;-1.666;2022-07-23T13:56:03;4.05;;;1.83;;
33987;SDS011;37428;53.580;-1.666;2022-07-23T13:59:05;4.88;;;2.42;;
33987;SDS011;37428;53.580;-1.666;2022-07-23T14:02:07;3.45;;;2.10;;
33987;SDS011;37428;53.580;-1.666;2022-07-23T14:05:24;2.45;;;2.25;;
33987;SDS011;37428;53.580;-1.666;2022-07-23T14:08:32;2.30;;;2.10;;
33987;SDS011;37428;53.580;-1.666;2022-07-23T14:11:42;5.57;;;2.47;;
33987;SDS011;37428;53.580;-1.666;2022-07-23T14:14:46;3.35;;;2.17;;
33987;SDS011;37428;53.580;-1.666;2022-07-23T14:17:56;3.72;;;2.28;;
33987;SDS011;37428;53.580;-1.666;2022-07-23T14:21:11;4.40;;;2.08;;
33987;SDS011;37428;53.580;-1.666;2022-07-23T14:24:16;3.85;;;2.58;;
33987;SDS011;37428;53.580;-1.666;2022-07-23T14:30:47;6.00;;;2.78;;
33987;SDS011;37428;53.580;-1.666;2022-07-23T14:33:55;5.15;;;3.05;;
33987;SDS011;37428;53.580;-1.666;2022-07-23T14:36:59;3.05;;;2.75;;
33987;SDS011;37428;53.580;-1.666;2022-07-23T14:40:19;4.15;;;3.50;;
33987;SDS011;37428;53.580;-1.666;2022-07-23T14:43:37;5.10;;;4.05;;
33987;SDS011;37428;53.580;-1.666;2022-07-23T14:46:47;5.20;;;3.75;;
33987;SDS011;37428;53.580;-1.666;2022-07-23T14:49:49;3.95;;;3.65;;
33987;SDS011;37428;53.580;-1.666;2022-07-23T14:52:55;4.00;;;3.60;;
33987;SDS011;37428;53.580;-1.666;2022-07-23T14:55:59;6.30;;;4.40;;
33987;SDS011;37428;53.580;-1.666;2022-07-23T14:59:13;4.15;;;2.97;;
33987;SDS011;37428;53.580;-1.666;2022-07-23T15:02:29;6.03;;;3.38;;
33987;SDS011;37428;53.580;-1.666;2022-07-23T15:05:48;3.85;;;3.55;;
33987;SDS011;37428;53.580;-1.666;2022-07-23T15:08:57;5.57;;;3.78;;
33987;SDS011;37428;53.580;-1.666;2022-07-23T15:12:04;3.97;;;3.67;;
33987;SDS011;37428;53.580;-1.666;2022-07-23T15:18:21;4.78;;;4.38;;
33987;SDS011;37428;53.580;-1.666;2022-07-23T15:21:25;4.03;;;3.65;;
33987;SDS011;37428;53.580;-1.666;2022-07-23T15:24:29;4.00;;;3.38;;
33987;SDS011;37428;53.580;-1.666;2022-07-23T15:27:35;5.28;;;4.18;;
33987;SDS011;37428;53.580;-1.666;2022-07-23T15:31:04;5.60;;;3.10;;
33987;SDS011;37428;53.580;-1.666;2022-07-23T15:34:08;5.70;;;3.40;;
33987;SDS011;37428;53.580;-1.666;2022-07-23T15:37:22;9.30;;;3.35;;
33987;SDS011;37428;53.580;-1.666;2022-07-23T15:40:25;5.35;;;3.03;;
33987;SDS011;37428;53.580;-1.666;2022-07-23T15:43:27;5.45;;;2.75;;
33987;SDS011;37428;53.580;-1.666;2022-07-23T15:49:43;4.93;;;3.00;;
33987;SDS011;37428;53.580;-1.666;2022-07-23T15:53:21;5.38;;;2.95;;
33987;SDS011;37428;53.580;-1.666;2022-07-23T15:56:16;4.90;;;2.70;;
33987;SDS011;37428;53.580;-1.666;2022-07-23T15:59:35;3.17;;;2.63;;
33987;SDS011;37428;53.580;-1.666;2022-07-23T16:02:58;2.80;;;2.60;;
33987;SDS011;37428;53.580;-1.666;2022-07-23T16:06:08;4.25;;;2.78;;
33987;SDS011;37428;53.580;-1.666;2022-07-23T16:09:12;4.85;;;2.90;;
33987;SDS011;37428;53.580;-1.666;2022-07-23T16:12:19;4.05;;;3.65;;
33987;SDS011;37428;53.580;-1.666;2022-07-23T16:15:27;5.63;;;3.10;;
33987;SDS011;37428;53.580;-1.666;2022-07-23T16:18:34;3.38;;;3.08;;
33987;SDS011;37428;53.580;-1.666;2022-07-23T16:21:53;5.63;;;3.08;;
33987;SDS011;37428;53.580;-1.666;2022-07-23T16:24:57;3.60;;;3.13;;
33987;SDS011;37428;53.580;-1.666;2022-07-23T16:28:05;4.60;;;3.05;;
33987;SDS011;37428;53.580;-1.666;2022-07-23T16:32:47;3.20;;;2.90;;
33987;SDS011;37428;53.580;-1.666;2022-07-23T16:35:08;7.80;;;3.33;;
33987;SDS011;37428;53.580;-1.666;2022-07-23T16:41:36;3.53;;;3.22;;
33987;SDS011;37428;53.580;-1.666;2022-07-23T16:44:52;5.88;;;3.15;;
33987;SDS011;37428;53.580;-1.666;2022-07-23T16:48:11;3.90;;;3.30;;
33987;SDS011;37428;53.580;-1.666;2022-07-23T16:51:19;2.90;;;2.58;;
33987;SDS011;37428;53.580;-1.666;2022-07-23T16:54:36;3.83;;;3.33;;
33987;SDS011;37428;53.580;-1.666;2022-07-23T16:57:50;3.40;;;3.10;;
33987;SDS011;37428;53.580;-1.666;2022-07-23T17:00:58;7.00;;;3.45;;
33987;SDS011;37428;53.580;-1.666;2022-07-23T17:04:06;5.45;;;3.88;;
33987;SDS011;37428;53.580;-1.666;2022-07-23T17:07:12;5.18;;;3.67;;
33987;SDS011;37428;53.580;-1.666;2022-07-23T17:13:55;5.90;;;3.78;;
33987;SDS011;37428;53.580;-1.666;2022-07-23T17:17:00;7.35;;;3.55;;
33987;SDS011;37428;53.580;-1.666;2022-07-23T17:20:23;3.67;;;3.38;;
33987;SDS011;37428;53.580;-1.666;2022-07-23T17:23:42;4.10;;;3.72;;
33987;SDS011;37428;53.580;-1.666;2022-07-23T17:26:46;4.80;;;3.35;;
33987;SDS011;37428;53.580;-1.666;2022-07-23T17:29:49;2.45;;;1.85;;
33987;SDS011;37428;53.580;-1.666;2022-07-23T17:32:54;3.85;;;2.70;;
33987;SDS011;37428;53.580;-1.666;2022-07-23T17:35:58;5.00;;;3.53;;
33987;SDS011;37428;53.580;-1.666;2022-07-23T17:39:02;3.17;;;2.97;;
33987;SDS011;37428;53.580;-1.666;2022-07-23T17:42:06;5.78;;;3.20;;
33987;SDS011;37428;53.580;-1.666;2022-07-23T17:45:12;4.95;;;3.35;;
33987;SDS011;37428;53.580;-1.666;2022-07-23T17:48:21;6.75;;;2.97;;
33987;SDS011;37428;53.580;-1.666;2022-07-23T17:51:25;6.60;;;3.28;;
33987;SDS011;37428;53.580;-1.666;2022-07-23T17:54:33;2.67;;;2.40;;
33987;SDS011;37428;53.580;-1.666;2022-07-23T17:57:37;2.90;;;2.55;;
33987;SDS011;37428;53.580;-1.666;2022-07-23T18:00:41;3.15;;;2.38;;
33987;SDS011;37428;53.580;-1.666;2022-07-23T18:04:01;5.22;;;2.88;;
33987;SDS011;37428;53.580;-1.666;2022-07-23T18:07:21;3.35;;;2.70;;
33987;SDS011;37428;53.580;-1.666;2022-07-23T18:10:51;5.10;;;2.47;;
33987;SDS011;37428;53.580;-1.666;2022-07-23T18:14:20;3.03;;;2.45;;
33987;SDS011;37428;53.580;-1.666;2022-07-23T18:17:32;3.05;;;2.25;;
33987;SDS011;37428;53.580;-1.666;2022-07-23T18:20:52;3.25;;;1.95;;
33987;SDS011;37428;53.580;-1.666;2022-07-23T18:24:05;4.20;;;2.92;;
33987;SDS011;37428;53.580;-1.666;2022-07-23T18:30:34;6.50;;;2.53;;
33987;SDS011;37428;53.580;-1.666;2022-07-23T18:39:37;3.35;;;1.90;;
33987;SDS011;37428;53.580;-1.666;2022-07-23T18:41:08;2.72;;;1.60;;
33987;SDS011;37428;53.580;-1.666;2022-07-23T18:44:27;3.58;;;1.80;;
33987;SDS011;37428;53.580;-1.666;2022-07-23T18:47:42;2.65;;;1.73;;
33987;SDS011;37428;53.580;-1.666;2022-07-23T18:50:59;2.30;;;1.70;;
33987;SDS011;37428;53.580;-1.666;2022-07-23T18:54:05;1.58;;;1.48;;
33987;SDS011;37428;53.580;-1.666;2022-07-23T18:57:23;2.88;;;1.70;;
33987;SDS011;37428;53.580;-1.666;2022-07-23T19:00:56;1.55;;;1.45;;
33987;SDS011;37428;53.580;-1.666;2022-07-23T19:04:38;1.75;;;1.60;;
33987;SDS011;37428;53.580;-1.666;2022-07-23T19:11:55;1.83;;;1.73;;
33987;SDS011;37428;53.580;-1.666;2022-07-23T19:15:07;2.10;;;1.73;;
33987;SDS011;37428;53.580;-1.666;2022-07-23T19:18:16;1.83;;;1.73;;
33987;SDS011;37428;53.580;-1.666;2022-07-23T19:21:31;2.15;;;1.15;;
33987;SDS011;37428;53.580;-1.666;2022-07-23T19:24:34;1.63;;;1.35;;
33987;SDS011;37428;53.580;-1.666;2022-07-23T19:27:39;2.00;;;1.10;;
33987;SDS011;37428;53.580;-1.666;2022-07-23T19:31:13;2.17;;;1.35;;
33987;SDS011;37428;53.580;-1.666;2022-07-23T19:34:24;1.75;;;1.50;;
33987;SDS011;37428;53.580;-1.666;2022-07-23T19:37:54;3.28;;;1.90;;
33987;SDS011;37428;53.580;-1.666;2022-07-23T19:40:59;5.53;;;1.77;;